sensor_id;sensor_type;location;lat;lon;timestamp;pressure;altitude;pressure_sealevel;temperature;humidity
7337;BME280;54510;42.016;23.098;2023-02-22T00:01:18;-21321.19;;;6.78;61.79
7337;BME280;54510;42.016;23.098;2023-02-22T00:03:49;-21316.31;;;6.60;61.95
7337;BME280;54510;42.016;23.098;2023-02-22T00:06:17;-21318.41;;;6.68;62.29
7337;BME280;54510;42.016;23.098;2023-02-22T00:08:43;-21321.34;;;6.79;62.12
7337;BME280;54510;42.016;23.098;2023-02-22T00:11:10;-21321.91;;;6.81;61.92
7337;BME280;54510;42.016;23.098;2023-02-22T00:13:37;-21321.91;;;6.81;62.46
7337;BME280;54510;42.016;23.098;2023-02-22T00:16:03;-21319.25;;;6.71;62.65
7337;BME280;54510;42.016;23.098;2023-02-22T00:18:29;-21313.25;;;6.49;63.33
7337;BME280;54510;42.016;23.098;2023-02-22T00:20:55;-21313.41;;;6.50;63.93
7337;BME280;54510;42.016;23.098;2023-02-22T00:23:24;-21317.44;;;6.64;63.31
7337;BME280;54510;42.016;23.098;2023-02-22T00:25:50;-21314.94;;;6.55;63.24
7337;BME280;54510;42.016;23.098;2023-02-22T00:28:17;-21315.47;;;6.57;63.61
7337;BME280;54510;42.016;23.098;2023-02-22T00:30:43;-21313.25;;;6.49;62.66
7337;BME280;54510;42.016;23.098;2023-02-22T00:33:11;-21316.47;;;6.61;62.93
7337;BME280;54510;42.016;23.098;2023-02-22T00:35:37;-21315.75;;;6.58;62.83
7337;BME280;54510;42.016;23.098;2023-02-22T00:38:04;-21318.28;;;6.67;62.36
7337;BME280;54510;42.016;23.098;2023-02-22T00:40:31;-21318.00;;;6.66;62.38
7337;BME280;54510;42.016;23.098;2023-02-22T00:42:58;-21317.44;;;6.64;62.58
7337;BME280;54510;42.016;23.098;2023-02-22T00:45:26;-21316.03;;;6.59;62.16
7337;BME280;54510;42.016;23.098;2023-02-22T00:47:53;-21313.94;;;6.52;63.42
7337;BME280;54510;42.016;23.098;2023-02-22T00:50:23;-21314.09;;;6.52;62.78
7337;BME280;54510;42.016;23.098;2023-02-22T00:52:49;-21311.72;;;6.44;62.19
7337;BME280;54510;42.016;23.098;2023-02-22T00:55:18;-21305.59;;;6.21;63.49
7337;BME280;54510;42.016;23.098;2023-02-22T00:57:44;-21300.13;;;6.02;63.85
7337;BME280;54510;42.016;23.098;2023-02-22T01:00:16;-21298.47;;;5.95;63.97
7337;BME280;54510;42.016;23.098;2023-02-22T01:02:42;-21298.88;;;5.97;64.03
7337;BME280;54510;42.016;23.098;2023-02-22T01:05:10;-21303.22;;;6.13;63.41
7337;BME280;54510;42.016;23.098;2023-02-22T01:07:41;-21302.78;;;6.11;63.71
7337;BME280;54510;42.016;23.098;2023-02-22T01:10:07;-21307.13;;;6.27;63.81
7337;BME280;54510;42.016;23.098;2023-02-22T01:12:34;-21308.22;;;6.31;63.22
7337;BME280;54510;42.016;23.098;2023-02-22T01:15:00;-21306.69;;;6.25;63.04
7337;BME280;54510;42.016;23.098;2023-02-22T01:17:28;-21308.78;;;6.33;63.42
7337;BME280;54510;42.016;23.098;2023-02-22T01:19:54;-21305.84;;;6.22;63.55
7337;BME280;54510;42.016;23.098;2023-02-22T01:22:20;-21303.63;;;6.14;63.95
7337;BME280;54510;42.016;23.098;2023-02-22T01:24:49;-21302.22;;;6.09;64.64
7337;BME280;54510;42.016;23.098;2023-02-22T01:27:16;-21303.50;;;6.14;64.38
7337;BME280;54510;42.016;23.098;2023-02-22T01:29:42;-21304.59;;;6.18;64.22
7337;BME280;54510;42.016;23.098;2023-02-22T01:32:08;-21305.59;;;6.21;64.11
7337;BME280;54510;42.016;23.098;2023-02-22T01:34:33;-21306.56;;;6.25;63.98
7337;BME280;54510;42.016;23.098;2023-02-22T01:36:59;-21303.06;;;6.12;64.25
7337;BME280;54510;42.016;23.098;2023-02-22T01:39:25;-21302.94;;;6.12;64.35
7337;BME280;54510;42.016;23.098;2023-02-22T01:41:51;-21301.53;;;6.07;64.70
7337;BME280;54510;42.016;23.098;2023-02-22T01:44:32;-21303.50;;;6.14;64.28
7337;BME280;54510;42.016;23.098;2023-02-22T01:46:59;-21301.81;;;6.08;64.10
7337;BME280;54510;42.016;23.098;2023-02-22T01:49:52;-21302.09;;;6.09;64.57
7337;BME280;54510;42.016;23.098;2023-02-22T01:52:19;-21301.53;;;6.07;64.13
7337;BME280;54510;42.016;23.098;2023-02-22T01:54:52;-21301.25;;;6.06;64.45
7337;BME280;54510;42.016;23.098;2023-02-22T01:57:30;-21299.16;;;5.98;64.95
7337;BME280;54510;42.016;23.098;2023-02-22T02:00:09;-21295.94;;;5.86;64.58
7337;BME280;54510;42.016;23.098;2023-02-22T02:02:41;-21291.63;;;5.71;65.02
7337;BME280;54510;42.016;23.098;2023-02-22T02:05:11;-21287.72;;;5.56;65.15
7337;BME280;54510;42.016;23.098;2023-02-22T02:07:37;-21287.84;;;5.57;64.85
7337;BME280;54510;42.016;23.098;2023-02-22T02:10:06;-21292.31;;;5.73;64.44
7337;BME280;54510;42.016;23.098;2023-02-22T02:12:34;-21290.50;;;5.67;64.70
7337;BME280;54510;42.016;23.098;2023-02-22T02:15:26;-21288.53;;;5.60;64.37
7337;BME280;54510;42.016;23.098;2023-02-22T02:18:00;-21283.94;;;5.43;64.88
7337;BME280;54510;42.016;23.098;2023-02-22T02:20:35;-21281.28;;;5.33;65.54
7337;BME280;54510;42.016;23.098;2023-02-22T02:29:01;-21275.56;;;5.12;65.74
7337;BME280;54510;42.016;23.098;2023-02-22T02:37:21;-21278.91;;;5.25;66.58
7337;BME280;54510;42.016;23.098;2023-02-22T02:40:17;-21277.25;;;5.19;66.01
7337;BME280;54510;42.016;23.098;2023-02-22T02:48:13;-21277.78;;;5.21;66.63
7337;BME280;54510;42.016;23.098;2023-02-22T02:50:44;-21276.69;;;5.16;66.61
7337;BME280;54510;42.016;23.098;2023-02-22T02:53:13;-21272.78;;;5.02;67.17
7337;BME280;54510;42.016;23.098;2023-02-22T02:55:41;-21275.28;;;5.11;67.41
7337;BME280;54510;42.016;23.098;2023-02-22T02:58:07;-21275.16;;;5.11;67.33
7337;BME280;54510;42.016;23.098;2023-02-22T03:00:37;-21276.13;;;5.14;67.20
7337;BME280;54510;42.016;23.098;2023-02-22T03:08:59;-21282.28;;;5.37;65.51
7337;BME280;54510;42.016;23.098;2023-02-22T03:11:28;-21281.56;;;5.34;65.60
7337;BME280;54510;42.016;23.098;2023-02-22T03:14:10;-21272.63;;;5.02;66.09
7337;BME280;54510;42.016;23.098;2023-02-22T03:16:59;-21273.34;;;5.04;66.40
7337;BME280;54510;42.016;23.098;2023-02-22T03:19:43;-21272.50;;;5.01;66.74
7337;BME280;54510;42.016;23.098;2023-02-22T03:22:24;-21270.81;;;4.95;66.35
7337;BME280;54510;42.016;23.098;2023-02-22T03:24:55;-21270.53;;;4.94;66.48
7337;BME280;54510;42.016;23.098;2023-02-22T03:27:27;-21268.16;;;4.86;66.79
7337;BME280;54510;42.016;23.098;2023-02-22T03:29:59;-21264.09;;;4.71;67.80
7337;BME280;54510;42.016;23.098;2023-02-22T03:32:30;-21263.56;;;4.69;67.67
7337;BME280;54510;42.016;23.098;2023-02-22T03:35:01;-21263.13;;;4.67;67.80
7337;BME280;54510;42.016;23.098;2023-02-22T03:37:31;-21266.63;;;4.80;68.10
7337;BME280;54510;42.016;23.098;2023-02-22T03:39:59;-21266.63;;;4.80;67.17
7337;BME280;54510;42.016;23.098;2023-02-22T03:42:29;-21267.03;;;4.82;67.48
7337;BME280;54510;42.016;23.098;2023-02-22T03:44:58;-21266.19;;;4.78;67.00
7337;BME280;54510;42.016;23.098;2023-02-22T03:47:32;-21261.72;;;4.62;67.76
7337;BME280;54510;42.016;23.098;2023-02-22T03:52:34;-21261.88;;;4.63;68.35
7337;BME280;54510;42.016;23.098;2023-02-22T03:55:01;-21263.97;;;4.70;68.30
7337;BME280;54510;42.016;23.098;2023-02-22T03:57:31;-21261.59;;;4.62;68.32
7337;BME280;54510;42.016;23.098;2023-02-22T03:59:59;-21259.34;;;4.54;68.97
7337;BME280;54510;42.016;23.098;2023-02-22T04:02:24;-21261.16;;;4.60;68.57
7337;BME280;54510;42.016;23.098;2023-02-22T04:04:50;-21262.00;;;4.63;69.06
7337;BME280;54510;42.016;23.098;2023-02-22T04:07:16;-21261.59;;;4.62;69.22
7337;BME280;54510;42.016;23.098;2023-02-22T04:09:41;-21260.06;;;4.56;68.90
7337;BME280;54510;42.016;23.098;2023-02-22T04:12:07;-21259.34;;;4.54;69.13
7337;BME280;54510;42.016;23.098;2023-02-22T04:14:32;-21263.00;;;4.67;69.17
7337;BME280;54510;42.016;23.098;2023-02-22T04:16:58;-21259.06;;;4.53;69.03
7337;BME280;54510;42.016;23.098;2023-02-22T04:19:24;-21255.31;;;4.39;69.39
7337;BME280;54510;42.016;23.098;2023-02-22T04:21:49;-21256.69;;;4.44;69.12
7337;BME280;54510;42.016;23.098;2023-02-22T04:24:15;-21257.97;;;4.49;68.72
7337;BME280;54510;42.016;23.098;2023-02-22T04:26:40;-21257.69;;;4.48;68.45
7337;BME280;54510;42.016;23.098;2023-02-22T04:29:06;-21257.69;;;4.48;68.57
7337;BME280;54510;42.016;23.098;2023-02-22T04:31:32;-21256.56;;;4.44;68.47
7337;BME280;54510;42.016;23.098;2023-02-22T04:33:59;-21254.59;;;4.36;68.58
7337;BME280;54510;42.016;23.098;2023-02-22T04:36:26;-21252.22;;;4.28;68.64
7337;BME280;54510;42.016;23.098;2023-02-22T04:38:53;-21250.97;;;4.23;68.94
7337;BME280;54510;42.016;23.098;2023-02-22T04:41:18;-21243.00;;;3.94;69.81
7337;BME280;54510;42.016;23.098;2023-02-22T04:43:44;-21245.38;;;4.03;70.05
7337;BME280;54510;42.016;23.098;2023-02-22T04:46:11;-21245.38;;;4.03;69.84
7337;BME280;54510;42.016;23.098;2023-02-22T04:48:36;-21242.72;;;3.93;71.06
7337;BME280;54510;42.016;23.098;2023-02-22T04:51:02;-21246.78;;;4.08;71.14
7337;BME280;54510;42.016;23.098;2023-02-22T04:53:28;-21248.16;;;4.13;70.47
7337;BME280;54510;42.016;23.098;2023-02-22T04:55:53;-21252.78;;;4.30;70.12
7337;BME280;54510;42.016;23.098;2023-02-22T04:58:19;-21249.84;;;4.19;70.09
7337;BME280;54510;42.016;23.098;2023-02-22T05:00:44;-21246.22;;;4.06;69.90
7337;BME280;54510;42.016;23.098;2023-02-22T05:03:10;-21246.78;;;4.08;70.72
7337;BME280;54510;42.016;23.098;2023-02-22T05:05:35;-21247.19;;;4.10;70.20
7337;BME280;54510;42.016;23.098;2023-02-22T05:08:00;-21249.56;;;4.18;70.19
7337;BME280;54510;42.016;23.098;2023-02-22T05:10:26;-21250.13;;;4.20;70.03
7337;BME280;54510;42.016;23.098;2023-02-22T05:12:52;-21250.41;;;4.21;70.07
7337;BME280;54510;42.016;23.098;2023-02-22T05:15:21;-21250.13;;;4.20;70.76
7337;BME280;54510;42.016;23.098;2023-02-22T05:17:48;-21249.00;;;4.16;70.41
7337;BME280;54510;42.016;23.098;2023-02-22T05:20:26;-21256.00;;;4.42;69.77
7337;BME280;54510;42.016;23.098;2023-02-22T05:22:55;-21258.25;;;4.50;69.26
7337;BME280;54510;42.016;23.098;2023-02-22T05:25:22;-21260.75;;;4.59;68.99
7337;BME280;54510;42.016;23.098;2023-02-22T05:27:49;-21259.91;;;4.56;68.41
7337;BME280;54510;42.016;23.098;2023-02-22T05:30:15;-21262.28;;;4.64;68.03
7337;BME280;54510;42.016;23.098;2023-02-22T05:32:40;-21264.09;;;4.71;68.06
7337;BME280;54510;42.016;23.098;2023-02-22T05:35:06;-21260.06;;;4.56;67.86
7337;BME280;54510;42.016;23.098;2023-02-22T05:37:32;-21260.06;;;4.56;68.03
7337;BME280;54510;42.016;23.098;2023-02-22T05:39:58;-21261.16;;;4.60;67.62
7337;BME280;54510;42.016;23.098;2023-02-22T05:42:24;-21263.00;;;4.67;67.76
7337;BME280;54510;42.016;23.098;2023-02-22T05:44:49;-21264.94;;;4.74;67.20
7337;BME280;54510;42.016;23.098;2023-02-22T05:47:15;-21262.44;;;4.65;67.14
7337;BME280;54510;42.016;23.098;2023-02-22T05:49:40;-21258.78;;;4.52;67.41
7337;BME280;54510;42.016;23.098;2023-02-22T05:52:06;-21260.06;;;4.56;67.86
7337;BME280;54510;42.016;23.098;2023-02-22T05:54:31;-21260.47;;;4.58;67.56
7337;BME280;54510;42.016;23.098;2023-02-22T05:56:56;-21260.34;;;4.57;67.85
7337;BME280;54510;42.016;23.098;2023-02-22T05:59:22;-21261.03;;;4.60;67.73
7337;BME280;54510;42.016;23.098;2023-02-22T06:01:47;-21264.25;;;4.71;67.29
7337;BME280;54510;42.016;23.098;2023-02-22T06:04:13;-21259.78;;;4.55;67.93
7337;BME280;54510;42.016;23.098;2023-02-22T06:06:38;-21261.31;;;4.61;67.47
7337;BME280;54510;42.016;23.098;2023-02-22T06:09:04;-21263.00;;;4.67;67.46
7337;BME280;54510;42.016;23.098;2023-02-22T06:11:29;-21266.06;;;4.78;67.63
7337;BME280;54510;42.016;23.098;2023-02-22T06:13:54;-21270.69;;;4.95;66.95
7337;BME280;54510;42.016;23.098;2023-02-22T06:16:21;-21273.47;;;5.05;66.33
7337;BME280;54510;42.016;23.098;2023-02-22T06:18:47;-21275.84;;;5.13;66.20
7337;BME280;54510;42.016;23.098;2023-02-22T06:21:12;-21275.69;;;5.13;65.94
7337;BME280;54510;42.016;23.098;2023-02-22T06:23:38;-21279.34;;;5.26;65.89
7337;BME280;54510;42.016;23.098;2023-02-22T06:26:03;-21281.00;;;5.32;65.27
7337;BME280;54510;42.016;23.098;2023-02-22T06:28:29;-21281.28;;;5.33;65.17
7337;BME280;54510;42.016;23.098;2023-02-22T06:30:54;-21282.53;;;5.38;64.82
7337;BME280;54510;42.016;23.098;2023-02-22T06:33:20;-21283.94;;;5.43;64.79
7337;BME280;54510;42.016;23.098;2023-02-22T06:35:45;-21282.53;;;5.38;64.79
7337;BME280;54510;42.016;23.098;2023-02-22T06:38:11;-21285.34;;;5.48;64.29
7337;BME280;54510;42.016;23.098;2023-02-22T06:40:36;-21290.09;;;5.65;64.66
7337;BME280;54510;42.016;23.098;2023-02-22T06:43:02;-21287.00;;;5.54;64.63
7337;BME280;54510;42.016;23.098;2023-02-22T06:45:27;-21288.69;;;5.60;64.74
7337;BME280;54510;42.016;23.098;2023-02-22T06:47:53;-21291.63;;;5.71;64.60
7337;BME280;54510;42.016;23.098;2023-02-22T06:50:25;-21292.88;;;5.75;64.30
7337;BME280;54510;42.016;23.098;2023-02-22T06:52:51;-21294.41;;;5.81;63.83
7337;BME280;54510;42.016;23.098;2023-02-22T06:55:28;-21295.81;;;5.86;63.43
7337;BME280;54510;42.016;23.098;2023-02-22T06:57:54;-21299.16;;;5.98;63.54
7337;BME280;54510;42.016;23.098;2023-02-22T07:00:22;-21303.06;;;6.12;63.50
7337;BME280;54510;42.016;23.098;2023-02-22T07:02:49;-21304.19;;;6.16;63.08
7337;BME280;54510;42.016;23.098;2023-02-22T07:05:16;-21305.72;;;6.22;63.19
7337;BME280;54510;42.016;23.098;2023-02-22T07:07:53;-21305.84;;;6.22;62.74
7337;BME280;54510;42.016;23.098;2023-02-22T07:10:25;-21303.34;;;6.13;63.31
7337;BME280;54510;42.016;23.098;2023-02-22T07:12:51;-21308.50;;;6.32;63.27
7337;BME280;54510;42.016;23.098;2023-02-22T07:15:21;-21314.38;;;6.53;62.46
7337;BME280;54510;42.016;23.098;2023-02-22T07:17:48;-21320.66;;;6.76;61.78
7337;BME280;54510;42.016;23.098;2023-02-22T07:20:14;-21322.59;;;6.83;61.55
7337;BME280;54510;42.016;23.098;2023-02-22T07:22:40;-21319.38;;;6.71;61.69
7337;BME280;54510;42.016;23.098;2023-02-22T07:25:06;-21323.00;;;6.85;61.63
7337;BME280;54510;42.016;23.098;2023-02-22T07:27:38;-21324.97;;;6.92;61.86
7337;BME280;54510;42.016;23.098;2023-02-22T07:30:16;-21328.03;;;7.03;61.30
7337;BME280;54510;42.016;23.098;2023-02-22T07:32:43;-21332.06;;;7.18;60.68
7337;BME280;54510;42.016;23.098;2023-02-22T07:35:22;-21337.50;;;7.37;60.66
7337;BME280;54510;42.016;23.098;2023-02-22T07:37:47;-21340.16;;;7.47;60.42
7337;BME280;54510;42.016;23.098;2023-02-22T07:40:14;-21345.03;;;7.65;59.78
7337;BME280;54510;42.016;23.098;2023-02-22T07:42:50;-21349.06;;;7.79;59.81
7337;BME280;54510;42.016;23.098;2023-02-22T07:45:16;-21352.13;;;7.90;59.46
7337;BME280;54510;42.016;23.098;2023-02-22T07:47:41;-21353.66;;;7.96;59.34
7337;BME280;54510;42.016;23.098;2023-02-22T07:50:07;-21354.38;;;7.99;59.09
7337;BME280;54510;42.016;23.098;2023-02-22T07:52:32;-21359.78;;;8.18;58.59
7337;BME280;54510;42.016;23.098;2023-02-22T07:54:58;-21364.53;;;8.36;57.98
7337;BME280;54510;42.016;23.098;2023-02-22T07:57:24;-21367.88;;;8.48;57.37
7337;BME280;54510;42.016;23.098;2023-02-22T07:59:52;-21368.44;;;8.50;57.50
7337;BME280;54510;42.016;23.098;2023-02-22T08:02:18;-21368.44;;;8.50;57.57
7337;BME280;54510;42.016;23.098;2023-02-22T08:04:44;-21371.50;;;8.61;57.02
7337;BME280;54510;42.016;23.098;2023-02-22T08:07:09;-21371.22;;;8.60;56.83
7337;BME280;54510;42.016;23.098;2023-02-22T08:09:35;-21374.56;;;8.72;56.78
7337;BME280;54510;42.016;23.098;2023-02-22T08:12:00;-21379.13;;;8.89;56.22
7337;BME280;54510;42.016;23.098;2023-02-22T08:14:26;-21382.47;;;9.01;55.57
7337;BME280;54510;42.016;23.098;2023-02-22T08:16:51;-21383.44;;;9.04;55.38
7337;BME280;54510;42.016;23.098;2023-02-22T08:19:17;-21386.09;;;9.14;54.35
7337;BME280;54510;42.016;23.098;2023-02-22T08:21:42;-21386.09;;;9.14;54.70
7337;BME280;54510;42.016;23.098;2023-02-22T08:24:08;-21386.50;;;9.16;53.92
7337;BME280;54510;42.016;23.098;2023-02-22T08:26:34;-21388.19;;;9.22;54.36
7337;BME280;54510;42.016;23.098;2023-02-22T08:28:59;-21391.25;;;9.33;54.12
7337;BME280;54510;42.016;23.098;2023-02-22T08:31:25;-21392.06;;;9.36;53.89
7337;BME280;54510;42.016;23.098;2023-02-22T08:33:50;-21393.03;;;9.39;53.57
7337;BME280;54510;42.016;23.098;2023-02-22T08:36:16;-21395.81;;;9.49;53.43
7337;BME280;54510;42.016;23.098;2023-02-22T08:38:42;-21398.19;;;9.58;52.91
7337;BME280;54510;42.016;23.098;2023-02-22T08:41:08;-21399.31;;;9.62;53.18
7337;BME280;54510;42.016;23.098;2023-02-22T08:43:33;-21400.84;;;9.68;53.25
7337;BME280;54510;42.016;23.098;2023-02-22T08:45:58;-21402.09;;;9.72;52.76
7337;BME280;54510;42.016;23.098;2023-02-22T08:48:24;-21404.31;;;9.80;52.53
7337;BME280;54510;42.016;23.098;2023-02-22T08:50:50;-21409.31;;;9.99;51.76
7337;BME280;54510;42.016;23.098;2023-02-22T08:53:16;-21412.91;;;10.12;51.08
7337;BME280;54510;42.016;23.098;2023-02-22T08:55:42;-21418.06;;;10.30;51.80
7337;BME280;54510;42.016;23.098;2023-02-22T08:58:08;-21420.41;;;10.39;50.79
7337;BME280;54510;42.016;23.098;2023-02-22T09:00:35;-21420.00;;;10.38;50.71
7337;BME280;54510;42.016;23.098;2023-02-22T09:03:03;-21427.78;;;10.66;50.66
7337;BME280;54510;42.016;23.098;2023-02-22T09:05:30;-21430.69;;;10.77;50.85
7337;BME280;54510;42.016;23.098;2023-02-22T09:07:55;-21431.53;;;10.80;50.39
7337;BME280;54510;42.016;23.098;2023-02-22T09:10:29;-21433.75;;;10.88;50.75
7337;BME280;54510;42.016;23.098;2023-02-22T09:12:55;-21436.66;;;10.98;50.13
7337;BME280;54510;42.016;23.098;2023-02-22T09:15:21;-21440.53;;;11.13;49.49
7337;BME280;54510;42.016;23.098;2023-02-22T09:17:48;-21444.16;;;11.26;49.29
7337;BME280;54510;42.016;23.098;2023-02-22T09:20:16;-21447.63;;;11.38;49.16
7337;BME280;54510;42.016;23.098;2023-02-22T09:22:45;-21448.88;;;11.43;49.37
7337;BME280;54510;42.016;23.098;2023-02-22T09:25:11;-21455.66;;;11.68;49.73
7337;BME280;54510;42.016;23.098;2023-02-22T09:27:36;-21460.38;;;11.85;48.95
7337;BME280;54510;42.016;23.098;2023-02-22T09:30:03;-21466.63;;;12.08;48.11
7337;BME280;54510;42.016;23.098;2023-02-22T09:32:29;-21466.34;;;12.07;47.86
7337;BME280;54510;42.016;23.098;2023-02-22T09:34:54;-21468.28;;;12.14;47.47
7337;BME280;54510;42.016;23.098;2023-02-22T09:37:20;-21469.53;;;12.18;47.21
7337;BME280;54510;42.016;23.098;2023-02-22T09:39:45;-21473.13;;;12.32;47.53
7337;BME280;54510;42.016;23.098;2023-02-22T09:42:15;-21476.44;;;12.44;47.38
7337;BME280;54510;42.016;23.098;2023-02-22T09:47:39;-21483.09;;;12.68;46.30
7337;BME280;54510;42.016;23.098;2023-02-22T09:52:50;-21487.53;;;12.84;45.86
7337;BME280;54510;42.016;23.098;2023-02-22T09:55:41;-21491.41;;;12.98;45.34
7337;BME280;54510;42.016;23.098;2023-02-22T09:58:32;-21495.28;;;13.13;45.15
7337;BME280;54510;42.016;23.098;2023-02-22T10:01:24;-21496.25;;;13.16;44.80
7337;BME280;54510;42.016;23.098;2023-02-22T10:04:38;-21497.63;;;13.21;44.86
7337;BME280;54510;42.016;23.098;2023-02-22T10:06:37;-21501.22;;;13.34;44.94
7337;BME280;54510;42.016;23.098;2023-02-22T10:09:08;-21501.78;;;13.36;44.57
7337;BME280;54510;42.016;23.098;2023-02-22T10:17:10;-21509.94;;;13.66;44.07
7337;BME280;54510;42.016;23.098;2023-02-22T10:20:20;-21513.81;;;13.80;43.96
7337;BME280;54510;42.016;23.098;2023-02-22T10:23:16;-21516.59;;;13.91;43.48
7337;BME280;54510;42.016;23.098;2023-02-22T10:25:51;-21524.88;;;14.21;43.44
7337;BME280;54510;42.016;23.098;2023-02-22T10:28:31;-21535.25;;;14.59;43.75
7337;BME280;54510;42.016;23.098;2023-02-22T10:31:06;-21536.50;;;14.63;42.63
7337;BME280;54510;42.016;23.098;2023-02-22T10:33:32;-21535.09;;;14.58;42.78
7337;BME280;54510;42.016;23.098;2023-02-22T10:35:59;-21544.22;;;14.92;43.68
7337;BME280;54510;42.016;23.098;2023-02-22T10:38:28;-21546.72;;;15.01;42.58
7337;BME280;54510;42.016;23.098;2023-02-22T10:43:42;-21551.13;;;15.17;41.52
7337;BME280;54510;42.016;23.098;2023-02-22T10:46:12;-21552.22;;;15.21;41.41
7337;BME280;54510;42.016;23.098;2023-02-22T10:48:39;-21554.16;;;15.28;41.37
7337;BME280;54510;42.016;23.098;2023-02-22T10:51:08;-21559.94;;;15.50;40.88
7337;BME280;54510;42.016;23.098;2023-02-22T10:53:34;-21561.06;;;15.54;40.58
7337;BME280;54510;42.016;23.098;2023-02-22T10:58:49;-21564.25;;;15.65;40.62
7337;BME280;54510;42.016;23.098;2023-02-22T11:01:41;-21565.47;;;15.70;40.53
7337;BME280;54510;42.016;23.098;2023-02-22T11:06:41;-21574.84;;;16.04;40.72
7337;BME280;54510;42.016;23.098;2023-02-22T11:09:20;-21576.78;;;16.11;40.17
7337;BME280;54510;42.016;23.098;2023-02-22T11:11:48;-21576.25;;;16.09;40.12
7337;BME280;54510;42.016;23.098;2023-02-22T11:14:28;-21581.06;;;16.27;40.51
7337;BME280;54510;42.016;23.098;2023-02-22T11:16:55;-21588.09;;;16.53;39.92
7337;BME280;54510;42.016;23.098;2023-02-22T11:19:30;-21587.81;;;16.52;39.45
7337;BME280;54510;42.016;23.098;2023-02-22T11:22:11;-21594.97;;;16.78;39.10
7337;BME280;54510;42.016;23.098;2023-02-22T11:24:51;-21596.50;;;16.84;38.67
7337;BME280;54510;42.016;23.098;2023-02-22T11:27:32;-21596.63;;;16.84;38.79
7337;BME280;54510;42.016;23.098;2023-02-22T11:32:43;-21614.53;;;17.50;38.02
7337;BME280;54510;42.016;23.098;2023-02-22T11:35:18;-21612.88;;;17.44;38.23
7337;BME280;54510;42.016;23.098;2023-02-22T11:37:44;-21615.34;;;17.53;37.93
7337;BME280;54510;42.016;23.098;2023-02-22T11:42:39;-21614.25;;;17.49;37.53
7337;BME280;54510;42.016;23.098;2023-02-22T11:45:18;-21617.41;;;17.61;37.59
7337;BME280;54510;42.016;23.098;2023-02-22T11:47:57;-21621.13;;;17.74;37.74
7337;BME280;54510;42.016;23.098;2023-02-22T11:55:33;-21629.13;;;18.04;36.15
7337;BME280;54510;42.016;23.098;2023-02-22T12:03:24;-21625.00;;;17.89;37.58
7337;BME280;54510;42.016;23.098;2023-02-22T12:22:29;-21659.06;;;19.14;34.05
7337;BME280;54510;42.016;23.098;2023-02-22T12:30:19;-21665.13;;;19.37;33.76
7337;BME280;54510;42.016;23.098;2023-02-22T12:32:51;-21664.84;;;19.36;33.23
7337;BME280;54510;42.016;23.098;2023-02-22T12:35:26;-21670.34;;;19.56;33.91
7337;BME280;54510;42.016;23.098;2023-02-22T12:38:19;-21681.03;;;19.95;32.92
7337;BME280;54510;42.016;23.098;2023-02-22T12:41:04;-21681.59;;;19.97;32.22
7337;BME280;54510;42.016;23.098;2023-02-22T12:43:43;-21682.41;;;20.00;31.99
7337;BME280;54510;42.016;23.098;2023-02-22T12:46:16;-21690.22;;;20.29;32.07
7337;BME280;54510;42.016;23.098;2023-02-22T12:49:02;-21692.97;;;20.39;31.58
7337;BME280;54510;42.016;23.098;2023-02-22T12:51:48;-21699.28;;;20.63;31.38
7337;BME280;54510;42.016;23.098;2023-02-22T12:54:40;-21704.19;;;20.81;31.16
7337;BME280;54510;42.016;23.098;2023-02-22T12:57:32;-21700.63;;;20.68;30.21
7337;BME280;54510;42.016;23.098;2023-02-22T13:00:05;-21698.59;;;20.60;31.05
7337;BME280;54510;42.016;23.098;2023-02-22T13:02:39;-21702.81;;;20.76;30.28
7337;BME280;54510;42.016;23.098;2023-02-22T13:05:14;-21707.63;;;20.94;30.32
7337;BME280;54510;42.016;23.098;2023-02-22T13:10:38;-21715.44;;;21.22;28.13
7337;BME280;54510;42.016;23.098;2023-02-22T13:18:48;-21719.69;;;21.38;26.97
7337;BME280;54510;42.016;23.098;2023-02-22T13:21:24;-21719.94;;;21.39;26.90
7337;BME280;54510;42.016;23.098;2023-02-22T13:26:48;-21726.53;;;21.63;26.65
7337;BME280;54510;42.016;23.098;2023-02-22T13:29:19;-21734.31;;;21.92;26.12
7337;BME280;54510;42.016;23.098;2023-02-22T13:32:03;-21732.81;;;21.87;26.26
7337;BME280;54510;42.016;23.098;2023-02-22T13:48:37;-21760.28;;;22.89;24.77
7337;BME280;54510;42.016;23.098;2023-02-22T13:51:46;-21773.41;;;23.37;24.76
7337;BME280;54510;42.016;23.098;2023-02-22T13:54:12;-21768.34;;;23.18;25.08
7337;BME280;54510;42.016;23.098;2023-02-22T13:56:44;-21754.81;;;22.68;24.83
7337;BME280;54510;42.016;23.098;2023-02-22T13:59:23;-21757.00;;;22.76;24.97
7337;BME280;54510;42.016;23.098;2023-02-22T14:01:50;-21765.06;;;23.06;24.92
7337;BME280;54510;42.016;23.098;2023-02-22T14:04:32;-21769.16;;;23.21;24.30
7337;BME280;54510;42.016;23.098;2023-02-22T14:07:01;-21760.69;;;22.90;24.38
7337;BME280;54510;42.016;23.098;2023-02-22T14:09:49;-21769.31;;;23.22;24.97
7337;BME280;54510;42.016;23.098;2023-02-22T14:22:43;-21762.06;;;22.95;24.85
7337;BME280;54510;42.016;23.098;2023-02-22T14:27:53;-21759.88;;;22.87;24.74
7337;BME280;54510;42.016;23.098;2023-02-22T14:30:27;-21764.66;;;23.05;24.52
7337;BME280;54510;42.016;23.098;2023-02-22T14:32:55;-21768.06;;;23.17;24.94
7337;BME280;54510;42.016;23.098;2023-02-22T14:35:22;-21764.25;;;23.03;24.61
7337;BME280;54510;42.016;23.098;2023-02-22T14:37:54;-21765.47;;;23.08;25.28
7337;BME280;54510;42.016;23.098;2023-02-22T14:40:26;-21771.06;;;23.29;24.58
7337;BME280;54510;42.016;23.098;2023-02-22T14:45:33;-21770.25;;;23.26;24.86
7337;BME280;54510;42.016;23.098;2023-02-22T14:48:05;-21775.31;;;23.44;25.06
7337;BME280;54510;42.016;23.098;2023-02-22T14:53:22;-21774.34;;;23.41;24.93
7337;BME280;54510;42.016;23.098;2023-02-22T14:56:02;-21769.31;;;23.22;25.08
7337;BME280;54510;42.016;23.098;2023-02-22T15:01:35;-21766.44;;;23.11;25.19
7337;BME280;54510;42.016;23.098;2023-02-22T15:04:20;-21767.81;;;23.16;24.62
7337;BME280;54510;42.016;23.098;2023-02-22T15:06:47;-21771.06;;;23.29;24.72
7337;BME280;54510;42.016;23.098;2023-02-22T15:11:52;-21762.88;;;22.98;24.90
7337;BME280;54510;42.016;23.098;2023-02-22T15:14:21;-21760.56;;;22.90;25.00
7337;BME280;54510;42.016;23.098;2023-02-22T15:16:52;-21757.97;;;22.80;24.97
7337;BME280;54510;42.016;23.098;2023-02-22T15:19:26;-21752.63;;;22.60;25.63
7337;BME280;54510;42.016;23.098;2023-02-22T15:21:57;-21752.50;;;22.60;25.26
7337;BME280;54510;42.016;23.098;2023-02-22T15:24:33;-21749.34;;;22.48;25.35